createdAt,value
2018-10-16T00:00:50.228Z,99.99
2018-10-16T00:01:50.180Z,99.99
2018-10-16T00:02:50.174Z,99.99
2018-10-16T00:03:50.130Z,99.99
2018-10-16T00:04:50.066Z,99.99
2018-10-16T00:05:50.034Z,99.99
2018-10-16T00:06:49.996Z,99.99
2018-10-16T00:07:49.957Z,96.94
2018-10-16T00:08:49.914Z,94.08
2018-10-16T00:09:49.885Z,94.17
2018-10-16T00:10:49.848Z,94.27
2018-10-16T00:11:49.797Z,95.46
2018-10-16T00:12:49.759Z,92.94
2018-10-16T00:13:49.723Z,96.08
2018-10-16T00:14:49.680Z,96.31
2018-10-16T00:15:49.664Z,92.74
2018-10-16T00:16:49.605Z,98.46
2018-10-16T00:17:49.564Z,99.99
2018-10-16T00:18:49.521Z,99.99
2018-10-16T00:19:49.493Z,99.99
2018-10-16T00:20:49.473Z,98.94
2018-10-16T00:21:49.423Z,99.98
2018-10-16T00:22:49.377Z,98.36
2018-10-16T00:23:49.340Z,99.99
2018-10-16T00:24:49.303Z,99.99
2018-10-16T00:25:49.269Z,99.99
2018-10-16T00:26:49.233Z,99.99
2018-10-16T00:27:49.191Z,99.99
2018-10-16T00:28:49.156Z,99.69
2018-10-16T00:29:49.104Z,99.99
2018-10-16T00:30:49.057Z,99.99
2018-10-16T00:31:49.025Z,99.99
2018-10-16T00:32:49.045Z,99.99
2018-10-16T00:33:48.953Z,99.99
2018-10-16T00:34:48.916Z,99.99
2018-10-16T00:35:48.871Z,99.99
2018-10-16T00:36:48.849Z,99.99
2018-10-16T00:37:48.802Z,99.99
2018-10-16T00:38:48.751Z,99.65
2018-10-16T00:39:48.717Z,99.99
2018-10-16T00:40:48.686Z,99.99
2018-10-16T00:41:48.629Z,98.13
2018-10-16T00:42:48.599Z,96.41
2018-10-16T00:43:48.563Z,96.51
2018-10-16T00:44:48.517Z,96.89
2018-10-16T00:45:48.474Z,94.22
2018-10-16T00:46:48.438Z,94.89
2018-10-16T00:47:48.412Z,93.65
2018-10-16T00:48:48.366Z,92.70
2018-10-16T00:49:48.329Z,94.89
2018-10-16T00:50:48.278Z,92.84
2018-10-16T00:51:48.234Z,96.26
2018-10-16T00:52:48.206Z,98.17
2018-10-16T00:53:48.177Z,92.18
2018-10-16T00:54:48.149Z,89.04
2018-10-16T00:55:48.113Z,93.13
2018-10-16T00:56:48.045Z,88.56
2018-10-16T00:57:48.027Z,83.33
2018-10-16T00:58:47.970Z,84.09
2018-10-16T00:59:47.930Z,87.04
2018-10-16T01:00:47.901Z,85.99
2018-10-16T01:01:47.879Z,83.52
2018-10-16T01:02:47.815Z,89.75
2018-10-16T01:03:47.763Z,95.56
2018-10-16T01:04:47.745Z,96.89
2018-10-16T01:05:47.698Z,95.56
2018-10-16T01:06:47.657Z,99.99
2018-10-16T01:07:47.614Z,94.32
2018-10-16T01:08:47.589Z,99.36
2018-10-16T01:09:47.528Z,99.99
2018-10-16T01:10:47.492Z,99.99
2018-10-16T01:11:47.455Z,99.99
2018-10-16T01:12:47.419Z,98.88
2018-10-16T01:13:47.374Z,98.22
2018-10-16T01:14:47.335Z,99.99
2018-10-16T01:15:47.308Z,97.50
2018-10-16T01:16:47.268Z,94.46
2018-10-16T01:17:47.229Z,93.89
2018-10-16T01:18:47.189Z,92.32
2018-10-16T01:19:47.149Z,95.46
2018-10-16T01:20:47.102Z,94.22
2018-10-16T01:21:47.071Z,93.94
2018-10-16T01:22:47.037Z,96.70
2018-10-16T01:23:47.004Z,99.65
2018-10-16T01:24:46.935Z,99.84
2018-10-16T01:25:46.894Z,99.99
2018-10-16T01:26:46.872Z,99.99
2018-10-16T01:27:46.837Z,98.27
2018-10-16T01:28:46.783Z,95.32
2018-10-16T01:29:46.779Z,93.41
2018-10-16T01:30:46.728Z,91.42
2018-10-16T01:31:46.661Z,88.66
2018-10-16T01:32:46.635Z,90.32
2018-10-16T01:33:46.606Z,90.80
2018-10-16T01:34:46.553Z,93.94
2018-10-16T01:35:46.518Z,98.50
2018-10-16T01:36:46.490Z,99.99
2018-10-16T01:37:46.433Z,99.46
2018-10-16T01:38:46.403Z,99.69
2018-10-16T01:39:46.361Z,99.98
2018-10-16T01:40:46.325Z,99.99
2018-10-16T01:41:46.286Z,95.98
2018-10-16T01:42:46.235Z,95.03
2018-10-16T01:43:46.202Z,91.22
2018-10-16T01:44:46.161Z,90.47
2018-10-16T01:45:46.116Z,93.13
2018-10-16T01:46:46.076Z,89.23
2018-10-16T01:47:46.044Z,83.71
2018-10-16T01:48:46.028Z,80.86
2018-10-16T01:49:45.953Z,82.19
2018-10-16T01:50:45.925Z,85.80
2018-10-16T01:51:45.874Z,83.62
2018-10-16T01:52:45.862Z,84.09
2018-10-16T01:53:45.806Z,84.09
2018-10-16T01:54:45.768Z,85.71
2018-10-16T01:55:45.741Z,88.09
2018-10-16T01:56:45.688Z,89.51
2018-10-16T01:57:45.672Z,91.89
2018-10-16T01:58:45.620Z,93.32
2018-10-16T01:59:45.565Z,94.74
2018-10-16T02:00:45.553Z,95.70
2018-10-16T02:01:45.501Z,93.41
2018-10-16T02:02:45.571Z,90.94
2018-10-16T02:03:45.408Z,87.04
2018-10-16T02:04:45.387Z,87.61
2018-10-16T02:05:45.349Z,86.18
2018-10-16T02:06:45.306Z,87.71
2018-10-16T02:07:45.259Z,88.71
2018-10-16T02:08:45.226Z,83.39
2018-10-16T02:09:45.176Z,80.10
2018-10-16T02:10:45.156Z,81.58
2018-10-16T02:11:45.105Z,78.29
2018-10-16T02:12:45.092Z,81.43
2018-10-16T02:13:45.010Z,80.95
2018-10-16T02:14:45.027Z,83.52
2018-10-16T02:15:44.962Z,82.28
2018-10-16T02:16:44.886Z,84.56
2018-10-16T02:17:44.857Z,88.75
2018-10-16T02:18:44.828Z,90.28
2018-10-16T02:19:44.775Z,90.08
2018-10-16T02:20:44.750Z,92.27
2018-10-16T02:21:44.715Z,92.75
2018-10-16T02:22:44.658Z,92.84
2018-10-16T02:23:44.652Z,89.89
2018-10-16T02:24:44.577Z,87.32
2018-10-16T02:25:44.539Z,85.99
2018-10-16T02:26:44.524Z,85.04
2018-10-16T02:27:44.490Z,81.90
2018-10-16T02:28:44.424Z,79.81
2018-10-16T02:29:44.403Z,80.86
2018-10-16T02:30:44.346Z,83.71
2018-10-16T02:31:44.308Z,86.47
2018-10-16T02:32:44.275Z,88.56
2018-10-16T02:33:44.248Z,90.84
2018-10-16T02:34:44.182Z,89.04
2018-10-16T02:35:44.142Z,86.85
2018-10-16T02:36:44.101Z,85.04
2018-10-16T02:37:44.076Z,84.47
2018-10-16T02:38:44.022Z,85.80
2018-10-16T02:39:43.986Z,87.52
2018-10-16T02:40:43.963Z,88.56
2018-10-16T02:41:43.901Z,92.46
2018-10-16T02:42:43.869Z,93.51
2018-10-16T02:43:43.819Z,95.70
2018-10-16T02:44:43.799Z,96.84
2018-10-16T02:45:43.749Z,94.56
2018-10-16T02:46:43.700Z,95.22
2018-10-16T02:47:43.669Z,96.84
2018-10-16T02:48:43.622Z,97.41
2018-10-16T02:49:43.589Z,94.93
2018-10-16T02:50:43.537Z,91.99
2018-10-16T02:51:44.127Z,87.52
2018-10-16T02:52:43.468Z,86.52
2018-10-16T02:53:43.449Z,88.28
2018-10-16T02:54:43.394Z,87.95
2018-10-16T02:55:43.345Z,88.52
2018-10-16T02:56:43.323Z,89.66
2018-10-16T02:57:43.295Z,88.33
2018-10-16T02:58:43.226Z,80.82
2018-10-16T02:59:43.200Z,77.87
2018-10-16T03:00:43.159Z,80.82
2018-10-16T03:01:43.098Z,80.24
2018-10-16T03:02:43.067Z,77.30
2018-10-16T03:03:43.015Z,73.11
2018-10-16T03:04:42.981Z,75.87
2018-10-16T03:05:42.964Z,75.11
2018-10-16T03:06:42.913Z,73.40
2018-10-16T03:07:42.909Z,74.35
2018-10-16T03:08:42.844Z,85.00
2018-10-16T03:09:42.845Z,86.61
2018-10-16T03:10:42.799Z,90.80
2018-10-16T03:11:42.723Z,87.76
2018-10-16T03:12:42.693Z,85.28
2018-10-16T03:13:42.635Z,83.67
2018-10-16T03:14:42.588Z,83.39
2018-10-16T03:15:42.555Z,86.99
2018-10-16T03:16:42.512Z,92.70
2018-10-16T03:17:42.484Z,90.23
2018-10-16T03:18:42.423Z,83.86
2018-10-16T03:19:42.412Z,86.43
2018-10-16T03:20:42.378Z,90.23
2018-10-16T03:21:42.321Z,90.33
2018-10-16T03:22:42.277Z,82.34
2018-10-16T03:23:42.262Z,80.53
2018-10-16T03:24:42.208Z,80.72
2018-10-16T03:25:42.144Z,82.76
2018-10-16T03:26:42.110Z,88.66
2018-10-16T03:27:42.082Z,84.95
2018-10-16T03:28:42.066Z,87.52
2018-10-16T03:29:42.015Z,89.85
2018-10-16T03:30:41.950Z,93.89
2018-10-16T03:31:41.918Z,96.79
2018-10-16T03:32:41.973Z,95.84
2018-10-16T03:33:41.854Z,97.17
2018-10-16T03:34:41.807Z,95.56
2018-10-16T03:35:41.757Z,90.99
2018-10-16T03:36:41.711Z,86.80
2018-10-16T03:37:41.852Z,84.05
2018-10-16T03:38:41.649Z,83.48
2018-10-16T03:39:41.588Z,81.67
2018-10-16T03:40:41.568Z,77.49
2018-10-16T03:41:41.501Z,77.01
2018-10-16T03:42:41.489Z,76.73
2018-10-16T03:43:41.471Z,80.34
2018-10-16T03:44:41.406Z,87.38
2018-10-16T03:45:41.346Z,87.19
2018-10-16T03:46:41.316Z,87.76
2018-10-16T03:47:41.313Z,87.19
2018-10-16T03:48:41.229Z,88.85
2018-10-16T03:49:41.190Z,86.86
2018-10-16T03:50:41.160Z,80.87
2018-10-16T03:51:41.178Z,82.58
2018-10-16T03:52:41.074Z,82.49
2018-10-16T03:53:41.031Z,83.25
2018-10-16T03:54:41.004Z,83.53
2018-10-16T03:55:40.939Z,74.41
2018-10-16T03:56:40.905Z,67.09
2018-10-16T03:57:40.890Z,72.70
2018-10-16T03:58:40.825Z,83.44
2018-10-16T03:59:40.788Z,75.26
2018-10-16T04:00:40.766Z,77.73
2018-10-16T04:01:40.705Z,70.79
2018-10-16T04:02:40.687Z,72.13
2018-10-16T04:03:40.635Z,77.92
2018-10-16T04:04:40.616Z,81.35
2018-10-16T04:05:40.563Z,82.87
2018-10-16T04:06:40.561Z,82.01
2018-10-16T04:07:40.484Z,79.73
2018-10-16T04:08:40.432Z,79.16
2018-10-16T04:09:40.412Z,75.74
2018-10-16T04:10:40.342Z,71.94
2018-10-16T04:11:40.328Z,73.27
2018-10-16T04:12:40.272Z,74.88
2018-10-16T04:13:40.225Z,75.55
2018-10-16T04:14:40.197Z,73.65
2018-10-16T04:15:40.142Z,73.46
2018-10-16T04:16:40.095Z,68.52
2018-10-16T04:17:40.055Z,67.85
2018-10-16T04:18:40.008Z,66.71
2018-10-16T04:19:40.000Z,66.14
2018-10-16T04:20:39.932Z,69.75
2018-10-16T04:21:39.892Z,71.94
2018-10-16T04:22:39.924Z,73.46
2018-10-16T04:23:39.853Z,75.26
2018-10-16T04:24:39.776Z,74.98
2018-10-16T04:25:39.743Z,71.84
2018-10-16T04:26:39.700Z,70.61
2018-10-16T04:27:39.671Z,68.42
2018-10-16T04:28:39.644Z,70.70
2018-10-16T04:29:39.577Z,74.60
2018-10-16T04:30:39.532Z,77.64
2018-10-16T04:31:39.493Z,79.44
2018-10-16T04:32:39.468Z,77.45
2018-10-16T04:33:39.438Z,74.69
2018-10-16T04:34:39.399Z,74.88
2018-10-16T04:35:39.344Z,74.31
2018-10-16T04:36:39.302Z,72.03
2018-10-16T04:37:39.289Z,73.08
2018-10-16T04:38:39.239Z,73.65
2018-10-16T04:39:39.186Z,72.99
2018-10-16T04:40:39.156Z,73.36
2018-10-16T04:41:39.127Z,76.40
2018-10-16T04:42:39.071Z,77.83
2018-10-16T04:43:39.074Z,79.44
2018-10-16T04:44:38.987Z,80.87
2018-10-16T04:45:38.947Z,78.69
2018-10-16T04:46:38.964Z,74.31
2018-10-16T04:47:38.892Z,69.37
2018-10-16T04:48:38.806Z,71.66
2018-10-16T04:49:38.785Z,72.70
2018-10-16T04:50:38.730Z,75.36
2018-10-16T04:51:38.711Z,74.51
2018-10-16T04:52:38.647Z,73.46
2018-10-16T04:53:38.630Z,74.69
2018-10-16T04:54:38.566Z,76.40
2018-10-16T04:55:38.585Z,75.55
2018-10-16T04:56:38.488Z,77.68
2018-10-16T04:57:38.459Z,77.83
2018-10-16T04:58:38.400Z,76.92
2018-10-16T04:59:38.368Z,79.86
2018-10-16T05:00:38.320Z,83.39
2018-10-16T05:01:38.294Z,81.63
2018-10-16T05:02:38.238Z,80.11
2018-10-16T05:03:38.224Z,78.69
2018-10-16T05:04:38.231Z,76.97
2018-10-16T05:05:38.142Z,75.64
2018-10-16T05:06:38.081Z,77.11
2018-10-16T05:07:38.036Z,79.86
2018-10-16T05:08:37.998Z,80.68
2018-10-16T05:09:37.975Z,80.58
2018-10-16T05:10:37.935Z,80.77
2018-10-16T05:11:37.898Z,81.25
2018-10-16T05:12:37.858Z,82.29
2018-10-16T05:13:37.809Z,81.82
2018-10-16T05:14:37.771Z,76.59
2018-10-16T05:15:37.731Z,76.40
2018-10-16T05:16:37.697Z,76.50
2018-10-16T05:17:37.679Z,77.83
2018-10-16T05:18:37.612Z,79.35
2018-10-16T05:19:37.551Z,76.78
2018-10-16T05:20:37.517Z,75.93
2018-10-16T05:21:37.493Z,73.74
2018-10-16T05:22:37.446Z,70.99
2018-10-16T05:23:37.404Z,70.42
2018-10-16T05:24:37.355Z,70.89
2018-10-16T05:25:37.312Z,68.33
2018-10-16T05:26:37.296Z,66.33
2018-10-16T05:27:37.243Z,66.14
2018-10-16T05:28:37.233Z,64.43
2018-10-16T05:29:37.146Z,64.72
2018-10-16T05:30:37.130Z,64.43
2018-10-16T05:31:37.275Z,66.33
2018-10-16T05:32:37.053Z,65.95
2018-10-16T05:33:36.999Z,66.33
2018-10-16T05:34:36.963Z,67.28
2018-10-16T05:35:36.919Z,67.19
2018-10-16T05:36:36.870Z,66.05
2018-10-16T05:37:36.846Z,67.38
2018-10-16T05:38:36.802Z,65.19
2018-10-16T05:39:36.752Z,65.28
2018-10-16T05:40:36.712Z,66.61
2018-10-16T05:41:36.745Z,68.42
2018-10-16T05:42:36.669Z,67.76
2018-10-16T05:43:36.610Z,66.71
2018-10-16T05:44:36.560Z,66.14
2018-10-16T05:45:36.523Z,66.42
2018-10-16T05:46:36.470Z,66.80
2018-10-16T05:47:36.442Z,66.33
2018-10-16T05:48:36.404Z,66.36
2018-10-16T05:49:36.388Z,66.36
2018-10-16T05:50:36.310Z,67.19
2018-10-16T05:51:36.287Z,71.50
2018-10-16T05:52:36.234Z,71.59
2018-10-16T05:53:36.196Z,71.12
2018-10-16T05:54:36.150Z,72.07
2018-10-16T05:55:36.133Z,73.40
2018-10-16T05:56:36.075Z,74.73
2018-10-16T05:57:36.037Z,74.82
2018-10-16T05:58:35.998Z,75.02
2018-10-16T05:59:35.977Z,78.91
2018-10-16T06:00:35.909Z,81.48
2018-10-16T06:01:35.872Z,81.01
2018-10-16T06:02:35.900Z,80.72
2018-10-16T06:03:35.815Z,79.77
2018-10-16T06:04:35.754Z,79.96
2018-10-16T06:05:35.767Z,80.44
2018-10-16T06:06:35.715Z,79.58
2018-10-16T06:07:35.654Z,77.39
2018-10-16T06:08:35.598Z,76.92
2018-10-16T06:09:35.558Z,79.20
2018-10-16T06:10:35.526Z,81.01
2018-10-16T06:11:35.473Z,79.86
2018-10-16T06:12:35.417Z,75.78
2018-10-16T06:13:35.403Z,77.01
2018-10-16T06:14:35.348Z,78.82
2018-10-16T06:15:35.320Z,81.10
2018-10-16T06:16:35.273Z,81.01
2018-10-16T06:17:35.260Z,81.86
2018-10-16T06:18:35.214Z,82.24
2018-10-16T06:19:35.183Z,82.43
2018-10-16T06:20:35.110Z,83.19
2018-10-16T06:21:35.060Z,84.62
2018-10-16T06:22:35.028Z,87.19
2018-10-16T06:23:34.998Z,89.32
2018-10-16T06:24:35.067Z,90.80
2018-10-16T06:25:34.912Z,92.75
2018-10-16T06:26:34.987Z,93.13
2018-10-16T06:27:34.876Z,92.56
2018-10-16T06:28:34.793Z,87.76
2018-10-16T06:29:34.764Z,85.71
2018-10-16T06:30:34.711Z,89.32
2018-10-16T06:31:34.665Z,91.99
2018-10-16T06:32:34.637Z,91.32
2018-10-16T06:33:34.589Z,92.94
2018-10-16T06:34:34.537Z,92.94
2018-10-16T06:35:34.526Z,94.08
2018-10-16T06:36:34.472Z,93.98
2018-10-16T06:37:34.436Z,93.98
2018-10-16T06:38:34.395Z,95.03
2018-10-16T06:39:34.354Z,94.93
2018-10-16T06:40:34.368Z,94.93
2018-10-16T06:41:34.310Z,94.46
2018-10-16T06:42:34.231Z,93.70
2018-10-16T06:43:34.190Z,93.51
2018-10-16T06:44:34.168Z,91.13
2018-10-16T06:45:34.108Z,91.46
2018-10-16T06:46:34.189Z,91.27
2018-10-16T06:47:34.070Z,92.70
2018-10-16T06:48:34.247Z,93.65
2018-10-16T06:49:33.950Z,95.17
2018-10-16T06:50:33.922Z,95.17
2018-10-16T06:51:33.879Z,99.99
2018-10-16T06:52:33.836Z,99.99
2018-10-16T06:53:33.793Z,99.99
2018-10-16T06:54:33.765Z,99.99
2018-10-16T06:55:33.743Z,99.99
2018-10-16T06:56:33.683Z,99.99
2018-10-16T06:57:33.663Z,99.99
2018-10-16T06:58:33.597Z,99.99
2018-10-16T06:59:33.572Z,99.99
2018-10-16T07:00:33.528Z,99.99
2018-10-16T07:01:33.490Z,99.99
2018-10-16T07:02:33.447Z,99.99
2018-10-16T07:03:33.408Z,99.99
2018-10-16T07:04:33.364Z,99.99
2018-10-16T07:05:33.333Z,99.99
2018-10-16T07:06:33.317Z,99.99
2018-10-16T07:07:33.244Z,99.99
2018-10-16T07:08:33.233Z,99.99
2018-10-16T07:09:33.168Z,99.99
2018-10-16T07:10:33.140Z,99.99
2018-10-16T07:11:33.089Z,99.99
2018-10-16T07:12:33.075Z,99.99
2018-10-16T07:13:33.016Z,99.99
2018-10-16T07:14:32.981Z,99.99
2018-10-16T07:15:32.966Z,99.99
2018-10-16T07:16:32.923Z,99.99
2018-10-16T07:17:32.872Z,99.99
2018-10-16T07:18:32.832Z,99.99
2018-10-16T07:19:32.797Z,99.99
2018-10-16T07:20:32.754Z,99.99
2018-10-16T07:21:32.761Z,99.99
2018-10-16T07:22:32.684Z,99.99
2018-10-16T07:23:32.674Z,99.99
2018-10-16T07:24:32.602Z,99.99
2018-10-16T07:25:32.597Z,99.99
2018-10-16T07:26:32.554Z,99.99
2018-10-16T07:27:32.511Z,99.99
2018-10-16T07:28:32.463Z,99.99
2018-10-16T07:29:32.427Z,99.99
2018-10-16T07:30:32.420Z,99.99
2018-10-16T07:31:32.372Z,99.99
2018-10-16T07:32:32.344Z,99.99
2018-10-16T07:33:32.288Z,99.99
2018-10-16T07:34:32.253Z,99.99
2018-10-16T07:35:32.222Z,99.99
2018-10-16T07:36:32.190Z,99.99
2018-10-16T07:37:32.152Z,99.99
2018-10-16T07:38:32.205Z,99.99
2018-10-16T07:39:32.075Z,99.99
2018-10-16T07:40:32.046Z,99.99
2018-10-16T07:41:32.020Z,99.99
2018-10-16T07:42:31.987Z,99.99
2018-10-16T07:43:31.933Z,99.99
2018-10-16T07:44:31.899Z,99.99
2018-10-16T07:45:31.872Z,99.99
2018-10-16T07:46:31.858Z,99.99
2018-10-16T07:47:31.806Z,99.99
2018-10-16T07:48:31.850Z,99.99
2018-10-16T07:49:31.727Z,99.99
2018-10-16T07:50:31.722Z,99.99
2018-10-16T07:51:31.687Z,99.99
2018-10-16T07:52:31.615Z,99.99
2018-10-16T07:53:31.627Z,99.99
2018-10-16T07:54:31.584Z,99.99
2018-10-16T07:55:31.520Z,99.99
2018-10-16T07:56:31.486Z,99.99
2018-10-16T07:57:31.466Z,99.99
2018-10-16T07:58:31.454Z,99.99
2018-10-16T07:59:31.384Z,99.99
2018-10-16T08:00:31.352Z,99.99
2018-10-16T08:01:31.308Z,99.99
2018-10-16T08:02:31.301Z,99.99
2018-10-16T08:03:31.254Z,99.99
2018-10-16T08:04:31.284Z,99.99
2018-10-16T08:05:31.193Z,99.99
2018-10-16T08:06:31.156Z,95.40
2018-10-16T08:07:31.162Z,87.13
2018-10-16T08:08:31.174Z,87.04
2018-10-16T08:09:31.072Z,88.29
2018-10-16T08:10:31.048Z,87.71
2018-10-16T08:11:31.019Z,91.42
2018-10-16T08:12:30.945Z,91.46
2018-10-16T08:13:30.919Z,90.65
2018-10-16T08:14:30.885Z,89.15
2018-10-16T08:15:30.862Z,86.46
2018-10-16T08:16:30.829Z,88.53
2018-10-16T08:17:30.801Z,86.35
2018-10-16T08:18:30.761Z,83.95
2018-10-16T08:19:30.752Z,79.27
2018-10-16T08:20:30.703Z,78.44
2018-10-16T08:21:30.678Z,76.90
2018-10-16T08:22:30.648Z,74.88
2018-10-16T08:23:30.614Z,74.14
2018-10-16T08:24:30.585Z,70.76
2018-10-16T08:25:30.553Z,71.58
2018-10-16T08:26:30.529Z,71.00
2018-10-16T08:27:30.501Z,70.84
2018-10-16T08:28:30.467Z,70.20
2018-10-16T08:29:30.434Z,69.13
2018-10-16T08:30:30.470Z,68.40
2018-10-16T08:31:30.392Z,68.17
2018-10-16T08:32:30.356Z,66.24
2018-10-16T08:33:30.324Z,64.82
2018-10-16T08:34:30.340Z,63.18
2018-10-16T08:35:30.266Z,66.40
2018-10-16T08:36:30.403Z,62.18
2018-10-16T08:37:30.236Z,62.08
2018-10-16T08:38:30.202Z,60.95
2018-10-16T08:39:30.157Z,58.56
2018-10-16T08:40:30.149Z,58.72
2018-10-16T08:41:30.117Z,57.45
2018-10-16T08:42:30.084Z,59.00
2018-10-16T08:43:30.065Z,56.74
2018-10-16T08:44:30.041Z,56.18
2018-10-16T08:45:30.003Z,54.56
2018-10-16T08:46:29.992Z,54.53
2018-10-16T08:47:29.999Z,53.27
2018-10-16T08:48:29.942Z,53.85
2018-10-16T08:49:29.918Z,54.17
2018-10-16T08:50:29.897Z,51.60
2018-10-16T08:51:29.880Z,50.24
2018-10-16T08:52:29.845Z,49.05
2018-10-16T08:53:29.846Z,49.58
2018-10-16T08:54:29.813Z,48.73
2018-10-16T08:55:29.791Z,54.62
2018-10-16T08:56:29.771Z,52.31
2018-10-16T08:57:29.754Z,50.56
2018-10-16T08:58:29.727Z,51.14
2018-10-16T08:59:29.700Z,46.54
2018-10-16T09:00:29.691Z,47.27
2018-10-16T09:01:29.699Z,49.73
2018-10-16T09:02:29.652Z,52.28
2018-10-16T09:03:29.620Z,52.84
2018-10-16T09:04:29.652Z,47.17
2018-10-16T09:05:29.579Z,50.51
2018-10-16T09:06:29.595Z,48.19
2018-10-16T09:07:29.556Z,45.67
2018-10-16T09:08:29.522Z,44.62
2018-10-16T09:09:29.509Z,45.67
2018-10-16T09:10:29.485Z,44.40
2018-10-16T09:11:29.469Z,45.74
2018-10-16T09:12:29.445Z,46.20
2018-10-16T09:13:29.445Z,46.98
2018-10-16T09:14:29.407Z,49.44
2018-10-16T09:15:29.387Z,47.00
2018-10-16T09:16:29.401Z,46.81
2018-10-16T09:17:29.349Z,46.23
2018-10-16T09:18:29.326Z,49.37
2018-10-16T09:19:29.316Z,49.97
2018-10-16T09:20:29.314Z,51.04
2018-10-16T09:21:29.278Z,50.46
2018-10-16T09:22:29.267Z,50.19
2018-10-16T09:23:29.278Z,49.71
2018-10-16T09:24:29.247Z,49.32
2018-10-16T09:25:29.205Z,49.12
2018-10-16T09:26:29.191Z,49.97
2018-10-16T09:27:29.164Z,49.90
2018-10-16T09:28:29.159Z,52.03
2018-10-16T09:29:29.142Z,53.33
2018-10-16T09:30:29.133Z,54.47
2018-10-16T09:31:29.093Z,55.60
2018-10-16T09:32:29.074Z,55.92
2018-10-16T09:33:29.039Z,55.79
2018-10-16T09:34:29.039Z,56.22
2018-10-16T09:35:29.037Z,57.89
2018-10-16T09:36:28.993Z,57.63
2018-10-16T09:37:28.999Z,55.78
2018-10-16T09:38:28.951Z,54.35
2018-10-16T09:39:28.942Z,53.09
2018-10-16T09:40:28.911Z,53.89
2018-10-16T09:41:28.886Z,50.24
2018-10-16T09:42:28.863Z,49.63
2018-10-16T09:43:28.851Z,50.34
2018-10-16T09:44:28.823Z,51.01
2018-10-16T09:45:28.799Z,51.21
2018-10-16T09:46:28.781Z,50.79
2018-10-16T09:47:28.762Z,51.72
2018-10-16T09:48:28.746Z,53.69
2018-10-16T09:49:28.733Z,54.27
2018-10-16T09:50:28.696Z,55.02
2018-10-16T09:51:28.682Z,56.63
2018-10-16T09:52:28.654Z,56.77
2018-10-16T09:53:28.624Z,58.61
2018-10-16T09:54:28.628Z,58.61
2018-10-16T09:55:28.595Z,58.39
2018-10-16T09:56:28.564Z,60.68
2018-10-16T09:57:28.544Z,61.32
2018-10-16T09:58:28.529Z,62.38
2018-10-16T09:59:28.520Z,62.89
2018-10-16T10:00:28.464Z,62.31
2018-10-16T10:01:28.452Z,62.38
2018-10-16T10:02:28.420Z,62.66
2018-10-16T10:03:28.403Z,63.02
2018-10-16T10:04:28.384Z,64.08
2018-10-16T10:05:28.371Z,63.79
2018-10-16T10:06:28.331Z,63.70
2018-10-16T10:07:28.308Z,63.98
2018-10-16T10:08:28.286Z,64.18
2018-10-16T10:09:28.273Z,64.86
2018-10-16T10:10:28.226Z,64.66
2018-10-16T10:11:28.264Z,65.63
2018-10-16T10:12:28.185Z,65.05
2018-10-16T10:13:28.149Z,65.63
2018-10-16T10:14:28.114Z,65.43
2018-10-16T10:15:28.092Z,65.63
2018-10-16T10:16:28.068Z,65.59
2018-10-16T10:17:28.057Z,64.53
2018-10-16T10:18:28.009Z,65.20
2018-10-16T10:19:27.987Z,66.94
2018-10-16T10:20:27.983Z,66.27
2018-10-16T10:21:27.941Z,66.75
2018-10-16T10:22:27.933Z,65.30
2018-10-16T10:23:27.921Z,66.07
2018-10-16T10:24:27.846Z,66.36
2018-10-16T10:25:27.835Z,66.17
2018-10-16T10:26:27.798Z,65.43
2018-10-16T10:27:27.784Z,64.95
2018-10-16T10:28:27.756Z,64.28
2018-10-16T10:29:27.782Z,64.18
2018-10-16T10:30:27.688Z,64.08
2018-10-16T10:31:27.696Z,64.47
2018-10-16T10:32:27.625Z,65.33
2018-10-16T10:33:27.605Z,65.72
2018-10-16T10:34:27.594Z,65.72
2018-10-16T10:35:27.584Z,65.33
2018-10-16T10:36:27.525Z,65.14
2018-10-16T10:37:27.490Z,65.69
2018-10-16T10:38:27.469Z,65.88
2018-10-16T10:39:27.433Z,68.26
2018-10-16T10:40:27.401Z,68.16
2018-10-16T10:41:27.374Z,68.26
2018-10-16T10:42:27.357Z,69.02
2018-10-16T10:43:27.315Z,69.60
2018-10-16T10:44:27.290Z,69.99
2018-10-16T10:45:27.250Z,70.47
2018-10-16T10:46:27.231Z,70.66
2018-10-16T10:47:27.198Z,69.45
2018-10-16T10:48:27.166Z,67.71
2018-10-16T10:49:27.140Z,68.96
2018-10-16T10:50:27.288Z,67.33
2018-10-16T10:51:27.373Z,67.90
2018-10-16T10:52:27.042Z,68.10
2018-10-16T10:53:27.027Z,68.00
2018-10-16T10:54:26.992Z,68.87
2018-10-16T10:55:26.976Z,68.58
2018-10-16T10:56:26.951Z,69.25
2018-10-16T10:57:26.920Z,67.81
2018-10-16T10:58:26.881Z,67.61
2018-10-16T10:59:26.849Z,68.29
2018-10-16T11:00:26.829Z,68.35
2018-10-16T11:01:26.781Z,69.41
2018-10-16T11:02:26.759Z,67.97
2018-10-16T11:03:26.855Z,67.97
2018-10-16T11:04:26.727Z,68.93
2018-10-16T11:05:26.693Z,69.31
2018-10-16T11:06:26.648Z,69.99
2018-10-16T11:07:26.641Z,68.26
2018-10-16T11:08:26.595Z,68.35
2018-10-16T11:09:26.546Z,68.93
2018-10-16T11:10:26.517Z,68.44
2018-10-16T11:11:26.492Z,69.60
2018-10-16T11:12:26.460Z,69.89
2018-10-16T11:13:26.435Z,70.86
2018-10-16T11:14:26.405Z,69.99
2018-10-16T11:15:26.377Z,70.86
2018-10-16T11:16:26.337Z,69.70
2018-10-16T11:17:26.315Z,69.89
2018-10-16T11:18:26.279Z,69.70
2018-10-16T11:19:26.317Z,70.56
2018-10-16T11:20:26.227Z,70.15
2018-10-16T11:21:26.188Z,70.34
2018-10-16T11:22:26.155Z,71.78
2018-10-16T11:23:26.130Z,70.24
2018-10-16T11:24:26.126Z,69.70
2018-10-16T11:25:26.073Z,69.09
2018-10-16T11:26:26.047Z,69.70
2018-10-16T11:27:26.026Z,70.09
2018-10-16T11:28:25.988Z,69.89
2018-10-16T11:29:25.954Z,70.02
2018-10-16T11:30:25.994Z,69.06
2018-10-16T11:31:25.905Z,69.45
2018-10-16T11:32:25.871Z,69.35
2018-10-16T11:33:25.830Z,69.09
2018-10-16T11:34:25.816Z,68.00
2018-10-16T11:35:25.776Z,68.19
2018-10-16T11:36:25.739Z,67.84
2018-10-16T11:37:25.711Z,67.33
2018-10-16T11:38:25.681Z,69.25
2018-10-16T11:39:25.643Z,68.87
2018-10-16T11:40:25.612Z,69.06
2018-10-16T11:41:25.578Z,67.84
2018-10-16T11:42:25.552Z,68.32
2018-10-16T11:43:25.525Z,69.48
2018-10-16T11:44:25.517Z,67.84
2018-10-16T11:45:25.461Z,67.74
2018-10-16T11:46:25.431Z,67.84
2018-10-16T11:47:25.457Z,70.06
2018-10-16T11:48:25.394Z,68.71
2018-10-16T11:49:25.334Z,69.38
2018-10-16T11:50:25.308Z,67.84
2018-10-16T11:51:25.284Z,67.78
2018-10-16T11:52:25.267Z,66.62
2018-10-16T11:53:25.224Z,66.78
2018-10-16T11:54:25.197Z,65.63
2018-10-16T11:55:25.192Z,65.72
2018-10-16T11:56:25.161Z,65.59
2018-10-16T11:57:25.112Z,67.52
2018-10-16T11:58:25.078Z,68.10
2018-10-16T11:59:25.121Z,68.29
2018-10-16T12:00:25.023Z,69.35
2018-10-16T12:01:24.995Z,69.25
2018-10-16T12:02:24.963Z,69.70
2018-10-16T12:03:24.924Z,69.93
2018-10-16T12:04:24.886Z,69.02
2018-10-16T12:05:24.865Z,69.31
2018-10-16T12:06:24.838Z,69.51
2018-10-16T12:07:24.806Z,69.38
2018-10-16T12:08:24.778Z,69.70
2018-10-16T12:09:24.761Z,69.70
2018-10-16T12:10:24.702Z,67.97
2018-10-16T12:11:24.683Z,68.64
2018-10-16T12:12:24.647Z,69.99
2018-10-16T12:13:24.635Z,70.56
2018-10-16T12:14:24.603Z,70.18
2018-10-16T12:15:24.564Z,69.89
2018-10-16T12:16:24.545Z,69.12
2018-10-16T12:17:24.503Z,68.06
2018-10-16T12:18:24.471Z,68.64
2018-10-16T12:19:24.460Z,69.12
2018-10-16T12:20:24.414Z,67.97
2018-10-16T12:21:24.377Z,68.26
2018-10-16T12:22:24.344Z,69.12
2018-10-16T12:23:24.353Z,69.09
2018-10-16T12:24:24.290Z,69.79
2018-10-16T12:25:24.271Z,69.12
2018-10-16T12:26:24.238Z,68.93
2018-10-16T12:27:24.200Z,68.26
2018-10-16T12:28:24.177Z,68.64
2018-10-16T12:29:24.166Z,68.87
2018-10-16T12:30:24.116Z,69.45
2018-10-16T12:31:24.106Z,69.35
2018-10-16T12:32:24.166Z,68.48
2018-10-16T12:33:24.045Z,67.90
2018-10-16T12:34:23.992Z,67.81
2018-10-16T12:35:23.971Z,67.42
2018-10-16T12:36:23.950Z,69.96
2018-10-16T12:37:23.903Z,68.10
2018-10-16T12:38:23.938Z,68.48
2018-10-16T12:39:23.832Z,69.35
2018-10-16T12:40:23.801Z,67.84
2018-10-16T12:41:23.770Z,66.97
2018-10-16T12:42:23.746Z,66.69
2018-10-16T12:43:23.791Z,66.69
2018-10-16T12:44:23.719Z,67.46
2018-10-16T12:45:23.645Z,67.52
2018-10-16T12:46:23.626Z,67.23
2018-10-16T12:47:23.594Z,67.52
2018-10-16T12:48:23.562Z,67.46
2018-10-16T12:49:23.527Z,67.13
2018-10-16T12:50:23.566Z,67.65
2018-10-16T12:51:23.470Z,67.84
2018-10-16T12:52:23.444Z,66.30